sensor_id;sensor_type;location;lat;lon;timestamp;pressure;altitude;pressure_sealevel;temperature;humidity
55517;BME280;41724;51.176;-0.708;2023-07-28T00:00:48;100092.02;;;20.03;88.47
55517;BME280;41724;51.176;-0.708;2023-07-28T00:03:14;100094.07;;;20.15;87.81
55517;BME280;41724;51.176;-0.708;2023-07-28T00:05:41;100089.77;;;20.53;86.24
55517;BME280;41724;51.176;-0.708;2023-07-28T00:08:08;100091.58;;;20.30;87.95
55517;BME280;41724;51.176;-0.708;2023-07-28T00:10:40;100090.45;;;20.29;87.86
55517;BME280;41724;51.176;-0.708;2023-07-28T00:13:07;100082.21;;;19.59;90.96
55517;BME280;41724;51.176;-0.708;2023-07-28T00:15:34;100079.48;;;19.93;90.75
55517;BME280;41724;51.176;-0.708;2023-07-28T00:18:01;100078.84;;;19.80;88.95
55517;BME280;41724;51.176;-0.708;2023-07-28T00:20:28;100076.88;;;19.28;92.49
55517;BME280;41724;51.176;-0.708;2023-07-28T00:22:55;100077.34;;;20.32;87.16
55517;BME280;41724;51.176;-0.708;2023-07-28T00:25:22;100075.69;;;20.01;89.12
55517;BME280;41724;51.176;-0.708;2023-07-28T00:27:48;100073.66;;;19.74;91.09
55517;BME280;41724;51.176;-0.708;2023-07-28T00:30:16;100076.38;;;20.18;89.40
55517;BME280;41724;51.176;-0.708;2023-07-28T00:32:44;100073.91;;;20.23;89.18
55517;BME280;41724;51.176;-0.708;2023-07-28T00:35:11;100075.68;;;19.95;88.93
55517;BME280;41724;51.176;-0.708;2023-07-28T00:37:38;100071.24;;;19.81;89.77
55517;BME280;41724;51.176;-0.708;2023-07-28T00:40:07;100076.60;;;20.05;89.37
55517;BME280;41724;51.176;-0.708;2023-07-28T00:42:34;100080.26;;;19.36;91.72
55517;BME280;41724;51.176;-0.708;2023-07-28T00:45:01;100083.65;;;19.19;92.75
55517;BME280;41724;51.176;-0.708;2023-07-28T00:47:28;100085.02;;;19.91;90.12
55517;BME280;41724;51.176;-0.708;2023-07-28T00:49:55;100083.11;;;19.52;91.21
55517;BME280;41724;51.176;-0.708;2023-07-28T00:52:22;100082.53;;;18.68;94.97
55517;BME280;41724;51.176;-0.708;2023-07-28T00:54:48;100085.29;;;20.24;88.75
55517;BME280;41724;51.176;-0.708;2023-07-28T00:57:16;100080.96;;;20.80;86.58
55517;BME280;41724;51.176;-0.708;2023-07-28T00:59:44;100078.60;;;20.94;84.33
55517;BME280;41724;51.176;-0.708;2023-07-28T01:02:11;100082.39;;;21.16;82.77
55517;BME280;41724;51.176;-0.708;2023-07-28T01:04:39;100083.32;;;21.10;82.43
55517;BME280;41724;51.176;-0.708;2023-07-28T01:07:09;100081.53;;;21.03;82.64
55517;BME280;41724;51.176;-0.708;2023-07-28T01:09:42;100081.80;;;21.20;82.67
55517;BME280;41724;51.176;-0.708;2023-07-28T01:12:09;100084.49;;;21.25;82.12
55517;BME280;41724;51.176;-0.708;2023-07-28T01:14:37;100082.41;;;20.29;85.60
55517;BME280;41724;51.176;-0.708;2023-07-28T01:17:04;100084.85;;;19.91;89.07
55517;BME280;41724;51.176;-0.708;2023-07-28T01:19:31;100083.94;;;19.23;92.41
55517;BME280;41724;51.176;-0.708;2023-07-28T01:22:11;100086.90;;;18.99;93.55
55517;BME280;41724;51.176;-0.708;2023-07-28T01:24:51;100089.90;;;19.91;89.79
55517;BME280;41724;51.176;-0.708;2023-07-28T01:27:22;100088.40;;;19.48;91.63
55517;BME280;41724;51.176;-0.708;2023-07-28T01:29:49;100093.35;;;20.04;88.35
55517;BME280;41724;51.176;-0.708;2023-07-28T01:32:16;100092.21;;;20.09;89.41
55517;BME280;41724;51.176;-0.708;2023-07-28T01:34:44;100094.46;;;19.47;89.63
55517;BME280;41724;51.176;-0.708;2023-07-28T01:37:11;100098.17;;;19.70;88.96
55517;BME280;41724;51.176;-0.708;2023-07-28T01:39:38;100103.54;;;20.37;86.60
55517;BME280;41724;51.176;-0.708;2023-07-28T01:42:05;100100.01;;;20.13;86.35
55517;BME280;41724;51.176;-0.708;2023-07-28T01:44:33;100090.02;;;20.59;84.66
55517;BME280;41724;51.176;-0.708;2023-07-28T01:47:00;100095.74;;;20.69;85.32
55517;BME280;41724;51.176;-0.708;2023-07-28T01:49:27;100095.70;;;20.49;83.54
55517;BME280;41724;51.176;-0.708;2023-07-28T01:51:53;100099.32;;;20.65;84.60
55517;BME280;41724;51.176;-0.708;2023-07-28T01:54:20;100097.86;;;19.76;86.32
55517;BME280;41724;51.176;-0.708;2023-07-28T01:56:47;100095.96;;;19.29;88.41
55517;BME280;41724;51.176;-0.708;2023-07-28T01:59:14;100097.10;;;20.16;85.09
55517;BME280;41724;51.176;-0.708;2023-07-28T02:01:41;100092.11;;;20.06;84.72
55517;BME280;41724;51.176;-0.708;2023-07-28T02:04:08;100089.42;;;20.45;81.61
55517;BME280;41724;51.176;-0.708;2023-07-28T02:06:35;100089.67;;;20.55;80.72
55517;BME280;41724;51.176;-0.708;2023-07-28T02:09:02;100092.46;;;20.44;81.87
55517;BME280;41724;51.176;-0.708;2023-07-28T02:11:28;100092.58;;;20.30;83.02
55517;BME280;41724;51.176;-0.708;2023-07-28T02:13:55;100087.20;;;19.49;84.58
55517;BME280;41724;51.176;-0.708;2023-07-28T02:16:22;100084.03;;;18.68;88.92
55517;BME280;41724;51.176;-0.708;2023-07-28T02:18:49;100083.87;;;18.70;89.33
55517;BME280;41724;51.176;-0.708;2023-07-28T02:21:16;100086.47;;;19.28;86.79
55517;BME280;41724;51.176;-0.708;2023-07-28T02:23:43;100085.13;;;19.49;84.82
55517;BME280;41724;51.176;-0.708;2023-07-28T02:26:10;100081.07;;;20.00;83.34
55517;BME280;41724;51.176;-0.708;2023-07-28T02:28:37;100084.27;;;20.13;83.36
55517;BME280;41724;51.176;-0.708;2023-07-28T02:31:04;100088.02;;;20.53;81.06
55517;BME280;41724;51.176;-0.708;2023-07-28T02:33:30;100090.36;;;19.58;82.30
55517;BME280;41724;51.176;-0.708;2023-07-28T02:35:57;100089.87;;;19.82;83.65
55517;BME280;41724;51.176;-0.708;2023-07-28T02:38:24;100090.82;;;20.24;82.02
55517;BME280;41724;51.176;-0.708;2023-07-28T02:40:51;100085.83;;;20.36;80.73
55517;BME280;41724;51.176;-0.708;2023-07-28T02:43:18;100086.87;;;20.66;79.36
55517;BME280;41724;51.176;-0.708;2023-07-28T02:45:48;100081.54;;;19.23;84.49
55517;BME280;41724;51.176;-0.708;2023-07-28T02:48:15;100085.17;;;20.25;81.77
55517;BME280;41724;51.176;-0.708;2023-07-28T02:50:46;100079.49;;;20.33;79.81
55517;BME280;41724;51.176;-0.708;2023-07-28T02:53:12;100078.98;;;20.50;78.97
55517;BME280;41724;51.176;-0.708;2023-07-28T02:55:41;100074.04;;;20.47;78.99
55517;BME280;41724;51.176;-0.708;2023-07-28T02:58:08;100077.52;;;20.80;77.75
55517;BME280;41724;51.176;-0.708;2023-07-28T03:00:37;100079.38;;;20.65;77.69
55517;BME280;41724;51.176;-0.708;2023-07-28T03:03:05;100082.35;;;19.49;83.43
55517;BME280;41724;51.176;-0.708;2023-07-28T03:05:32;100085.49;;;20.26;81.10
55517;BME280;41724;51.176;-0.708;2023-07-28T03:07:59;100081.97;;;20.17;80.21
55517;BME280;41724;51.176;-0.708;2023-07-28T03:10:26;100090.24;;;20.47;79.74
55517;BME280;41724;51.176;-0.708;2023-07-28T03:12:53;100089.77;;;19.34;83.61
55517;BME280;41724;51.176;-0.708;2023-07-28T03:15:20;100090.43;;;19.51;83.06
55517;BME280;41724;51.176;-0.708;2023-07-28T03:17:47;100090.60;;;19.01;84.11
55517;BME280;41724;51.176;-0.708;2023-07-28T03:20:14;100094.32;;;19.66;81.75
55517;BME280;41724;51.176;-0.708;2023-07-28T03:22:41;100097.37;;;19.83;82.13
55517;BME280;41724;51.176;-0.708;2023-07-28T03:25:09;100097.82;;;20.29;80.53
55517;BME280;41724;51.176;-0.708;2023-07-28T03:27:36;100101.13;;;20.59;78.88
55517;BME280;41724;51.176;-0.708;2023-07-28T03:30:03;100096.93;;;20.58;78.10
55517;BME280;41724;51.176;-0.708;2023-07-28T03:32:30;100093.94;;;19.70;78.73
55517;BME280;41724;51.176;-0.708;2023-07-28T03:34:57;100095.22;;;20.10;80.41
55517;BME280;41724;51.176;-0.708;2023-07-28T03:37:24;100094.30;;;20.28;78.40
55517;BME280;41724;51.176;-0.708;2023-07-28T03:39:51;100095.59;;;20.71;76.65
55517;BME280;41724;51.176;-0.708;2023-07-28T03:42:18;100096.35;;;21.28;75.91
55517;BME280;41724;51.176;-0.708;2023-07-28T03:44:45;100100.74;;;21.11;75.34
55517;BME280;41724;51.176;-0.708;2023-07-28T03:47:12;100099.05;;;21.27;75.21
55517;BME280;41724;51.176;-0.708;2023-07-28T03:49:39;100101.47;;;21.05;76.83
55517;BME280;41724;51.176;-0.708;2023-07-28T03:52:06;100106.14;;;20.74;75.98
55517;BME280;41724;51.176;-0.708;2023-07-28T03:54:33;100106.69;;;19.29;80.87
55517;BME280;41724;51.176;-0.708;2023-07-28T03:57:00;100107.04;;;19.21;83.62
55517;BME280;41724;51.176;-0.708;2023-07-28T03:59:27;100107.83;;;19.95;80.33
55517;BME280;41724;51.176;-0.708;2023-07-28T04:01:54;100106.97;;;19.44;83.06
55517;BME280;41724;51.176;-0.708;2023-07-28T04:04:21;100113.17;;;19.75;81.70
55517;BME280;41724;51.176;-0.708;2023-07-28T04:06:49;100113.66;;;19.42;82.40
55517;BME280;41724;51.176;-0.708;2023-07-28T04:09:16;100110.55;;;20.06;80.95
55517;BME280;41724;51.176;-0.708;2023-07-28T04:11:44;100107.88;;;19.65;80.45
55517;BME280;41724;51.176;-0.708;2023-07-28T04:14:11;100114.20;;;20.58;78.38
55517;BME280;41724;51.176;-0.708;2023-07-28T04:16:38;100116.56;;;20.49;77.51
55517;BME280;41724;51.176;-0.708;2023-07-28T04:19:06;100117.51;;;20.58;76.33
55517;BME280;41724;51.176;-0.708;2023-07-28T04:21:33;100120.81;;;20.85;75.58
55517;BME280;41724;51.176;-0.708;2023-07-28T04:24:00;100124.25;;;21.31;74.78
55517;BME280;41724;51.176;-0.708;2023-07-28T04:26:27;100121.69;;;21.31;74.54
55517;BME280;41724;51.176;-0.708;2023-07-28T04:28:53;100127.20;;;21.12;74.60
55517;BME280;41724;51.176;-0.708;2023-07-28T04:31:20;100128.94;;;21.33;74.22
55517;BME280;41724;51.176;-0.708;2023-07-28T04:33:47;100130.75;;;21.46;73.27
55517;BME280;41724;51.176;-0.708;2023-07-28T04:36:14;100127.15;;;21.32;73.21
55517;BME280;41724;51.176;-0.708;2023-07-28T04:38:41;100127.28;;;21.09;74.55
55517;BME280;41724;51.176;-0.708;2023-07-28T04:41:08;100126.81;;;21.24;73.16
55517;BME280;41724;51.176;-0.708;2023-07-28T04:43:35;100121.13;;;21.67;73.02
55517;BME280;41724;51.176;-0.708;2023-07-28T04:46:02;100122.68;;;21.71;72.76
55517;BME280;41724;51.176;-0.708;2023-07-28T04:48:28;100121.99;;;21.55;72.53
55517;BME280;41724;51.176;-0.708;2023-07-28T04:50:55;100121.00;;;21.81;71.73
55517;BME280;41724;51.176;-0.708;2023-07-28T04:53:23;100119.41;;;21.47;71.47
55517;BME280;41724;51.176;-0.708;2023-07-28T04:55:50;100115.36;;;21.89;70.78
55517;BME280;41724;51.176;-0.708;2023-07-28T04:58:17;100113.74;;;21.59;70.80
55517;BME280;41724;51.176;-0.708;2023-07-28T05:00:44;100111.93;;;21.54;71.12
55517;BME280;41724;51.176;-0.708;2023-07-28T05:03:10;100112.13;;;21.77;70.81
55517;BME280;41724;51.176;-0.708;2023-07-28T05:05:37;100110.60;;;21.66;71.41
55517;BME280;41724;51.176;-0.708;2023-07-28T05:08:04;100114.40;;;21.90;70.88
55517;BME280;41724;51.176;-0.708;2023-07-28T05:10:31;100115.06;;;21.73;70.47
55517;BME280;41724;51.176;-0.708;2023-07-28T05:12:58;100116.00;;;21.76;70.44
55517;BME280;41724;51.176;-0.708;2023-07-28T05:15:25;100117.34;;;21.69;70.63
55517;BME280;41724;51.176;-0.708;2023-07-28T05:17:52;100117.38;;;21.87;70.61
55517;BME280;41724;51.176;-0.708;2023-07-28T05:20:19;100117.53;;;21.22;70.90
55517;BME280;41724;51.176;-0.708;2023-07-28T05:22:46;100121.94;;;21.67;70.22
55517;BME280;41724;51.176;-0.708;2023-07-28T05:25:13;100122.24;;;21.88;70.40
55517;BME280;41724;51.176;-0.708;2023-07-28T05:27:41;100123.59;;;21.79;70.88
55517;BME280;41724;51.176;-0.708;2023-07-28T05:30:09;100125.23;;;21.56;70.15
55517;BME280;41724;51.176;-0.708;2023-07-28T05:32:36;100124.22;;;21.89;69.86
55517;BME280;41724;51.176;-0.708;2023-07-28T05:35:03;100125.29;;;21.67;70.12
55517;BME280;41724;51.176;-0.708;2023-07-28T05:37:31;100125.79;;;22.04;69.42
55517;BME280;41724;51.176;-0.708;2023-07-28T05:39:57;100130.09;;;22.03;69.54
55517;BME280;41724;51.176;-0.708;2023-07-28T05:42:25;100130.52;;;21.47;69.50
55517;BME280;41724;51.176;-0.708;2023-07-28T05:44:53;100127.16;;;21.67;69.46
55517;BME280;41724;51.176;-0.708;2023-07-28T05:47:20;100129.64;;;21.95;69.07
55517;BME280;41724;51.176;-0.708;2023-07-28T05:49:47;100135.64;;;20.01;74.81
55517;BME280;41724;51.176;-0.708;2023-07-28T05:52:14;100134.11;;;20.63;74.46
55517;BME280;41724;51.176;-0.708;2023-07-28T05:54:41;100133.82;;;21.28;73.49
55517;BME280;41724;51.176;-0.708;2023-07-28T05:57:08;100132.97;;;20.95;72.65
55517;BME280;41724;51.176;-0.708;2023-07-28T05:59:35;100135.13;;;20.34;75.84
55517;BME280;41724;51.176;-0.708;2023-07-28T06:02:02;100134.82;;;19.65;77.10
55517;BME280;41724;51.176;-0.708;2023-07-28T06:04:29;100131.58;;;20.16;75.07
55517;BME280;41724;51.176;-0.708;2023-07-28T06:06:56;100132.78;;;20.81;74.62
55517;BME280;41724;51.176;-0.708;2023-07-28T06:09:22;100130.62;;;20.98;72.70
55517;BME280;41724;51.176;-0.708;2023-07-28T06:11:49;100134.43;;;21.37;72.20
55517;BME280;41724;51.176;-0.708;2023-07-28T06:14:16;100137.52;;;20.78;72.07
55517;BME280;41724;51.176;-0.708;2023-07-28T06:16:43;100140.50;;;19.94;75.06
55517;BME280;41724;51.176;-0.708;2023-07-28T06:19:10;100140.07;;;20.77;73.52
55517;BME280;41724;51.176;-0.708;2023-07-28T06:21:37;100140.05;;;20.67;75.45
55517;BME280;41724;51.176;-0.708;2023-07-28T06:24:04;100143.09;;;19.93;75.59
55517;BME280;41724;51.176;-0.708;2023-07-28T06:26:31;100142.43;;;18.36;82.50
55517;BME280;41724;51.176;-0.708;2023-07-28T06:28:58;100140.14;;;19.47;77.69
55517;BME280;41724;51.176;-0.708;2023-07-28T06:31:25;100137.41;;;19.07;78.38
55517;BME280;41724;51.176;-0.708;2023-07-28T06:33:52;100143.63;;;18.62;80.61
55517;BME280;41724;51.176;-0.708;2023-07-28T06:36:19;100144.80;;;19.03;81.73
55517;BME280;41724;51.176;-0.708;2023-07-28T06:38:46;100146.55;;;18.28;81.83
55517;BME280;41724;51.176;-0.708;2023-07-28T06:41:13;100145.69;;;19.54;78.98
55517;BME280;41724;51.176;-0.708;2023-07-28T06:43:40;100149.50;;;19.66;77.97
55517;BME280;41724;51.176;-0.708;2023-07-28T06:46:06;100151.68;;;19.65;78.54
55517;BME280;41724;51.176;-0.708;2023-07-28T06:48:33;100154.52;;;20.31;76.24
55517;BME280;41724;51.176;-0.708;2023-07-28T06:51:00;100154.73;;;19.41;80.05
55517;BME280;41724;51.176;-0.708;2023-07-28T06:53:27;100156.44;;;19.57;77.27
55517;BME280;41724;51.176;-0.708;2023-07-28T06:55:54;100158.66;;;20.20;74.47
55517;BME280;41724;51.176;-0.708;2023-07-28T06:58:21;100160.74;;;20.94;72.86
55517;BME280;41724;51.176;-0.708;2023-07-28T07:00:48;100156.00;;;20.35;72.15
55517;BME280;41724;51.176;-0.708;2023-07-28T07:03:16;100153.52;;;20.19;72.02
55517;BME280;41724;51.176;-0.708;2023-07-28T07:05:43;100155.84;;;19.62;76.21
55517;BME280;41724;51.176;-0.708;2023-07-28T07:08:10;100160.53;;;20.64;72.65
55517;BME280;41724;51.176;-0.708;2023-07-28T07:10:37;100163.49;;;20.58;71.53
55517;BME280;41724;51.176;-0.708;2023-07-28T07:13:04;100161.08;;;19.49;75.65
55517;BME280;41724;51.176;-0.708;2023-07-28T07:15:34;100165.60;;;19.62;74.83
55517;BME280;41724;51.176;-0.708;2023-07-28T07:18:01;100162.55;;;20.36;73.18
55517;BME280;41724;51.176;-0.708;2023-07-28T07:20:28;100165.37;;;20.83;71.56
55517;BME280;41724;51.176;-0.708;2023-07-28T07:22:54;100170.56;;;19.11;75.21
55517;BME280;41724;51.176;-0.708;2023-07-28T07:25:21;100171.93;;;20.74;71.06
55517;BME280;41724;51.176;-0.708;2023-07-28T07:27:48;100170.60;;;19.66;74.46
55517;BME280;41724;51.176;-0.708;2023-07-28T07:30:15;100174.29;;;17.53;82.71
55517;BME280;41724;51.176;-0.708;2023-07-28T07:32:42;100176.83;;;17.59;83.85
55517;BME280;41724;51.176;-0.708;2023-07-28T07:35:09;100174.74;;;19.42;77.90
55517;BME280;41724;51.176;-0.708;2023-07-28T07:37:37;100175.90;;;19.38;76.04
55517;BME280;41724;51.176;-0.708;2023-07-28T07:40:05;100179.11;;;19.25;76.81
55517;BME280;41724;51.176;-0.708;2023-07-28T07:42:41;100184.33;;;18.19;78.73
55517;BME280;41724;51.176;-0.708;2023-07-28T07:45:10;100178.18;;;18.79;77.13
55517;BME280;41724;51.176;-0.708;2023-07-28T07:47:37;100185.75;;;18.23;79.94
55517;BME280;41724;51.176;-0.708;2023-07-28T07:50:06;100174.30;;;18.86;80.46
55517;BME280;41724;51.176;-0.708;2023-07-28T07:52:33;100172.76;;;18.94;79.64
55517;BME280;41724;51.176;-0.708;2023-07-28T07:55:00;100170.39;;;19.11;77.36
55517;BME280;41724;51.176;-0.708;2023-07-28T07:57:27;100173.80;;;18.69;78.01
55517;BME280;41724;51.176;-0.708;2023-07-28T07:59:54;100174.05;;;19.33;75.61
55517;BME280;41724;51.176;-0.708;2023-07-28T08:02:21;100175.45;;;19.24;75.50
55517;BME280;41724;51.176;-0.708;2023-07-28T08:04:48;100186.86;;;18.75;76.74
55517;BME280;41724;51.176;-0.708;2023-07-28T08:07:14;100183.96;;;19.32;77.89
55517;BME280;41724;51.176;-0.708;2023-07-28T08:09:41;100191.18;;;18.75;78.28
55517;BME280;41724;51.176;-0.708;2023-07-28T08:12:09;100183.29;;;19.62;77.29
55517;BME280;41724;51.176;-0.708;2023-07-28T08:14:36;100182.45;;;19.14;76.90
55517;BME280;41724;51.176;-0.708;2023-07-28T08:17:03;100184.57;;;20.16;73.35
55517;BME280;41724;51.176;-0.708;2023-07-28T08:19:30;100186.32;;;21.11;71.06
55517;BME280;41724;51.176;-0.708;2023-07-28T08:21:57;100190.87;;;20.59;71.53
55517;BME280;41724;51.176;-0.708;2023-07-28T08:24:24;100189.92;;;19.81;72.00
55517;BME280;41724;51.176;-0.708;2023-07-28T08:26:51;100193.42;;;20.81;69.94
55517;BME280;41724;51.176;-0.708;2023-07-28T08:29:18;100196.30;;;21.04;67.96
55517;BME280;41724;51.176;-0.708;2023-07-28T08:31:45;100192.56;;;20.43;71.78
55517;BME280;41724;51.176;-0.708;2023-07-28T08:34:12;100189.23;;;20.31;70.37
55517;BME280;41724;51.176;-0.708;2023-07-28T08:36:40;100189.92;;;20.84;70.52
55517;BME280;41724;51.176;-0.708;2023-07-28T08:39:06;100188.65;;;19.07;73.90
55517;BME280;41724;51.176;-0.708;2023-07-28T08:41:33;100194.53;;;18.59;77.52
55517;BME280;41724;51.176;-0.708;2023-07-28T08:44:00;100195.09;;;19.28;74.89
55517;BME280;41724;51.176;-0.708;2023-07-28T08:46:27;100193.32;;;20.29;74.39
55517;BME280;41724;51.176;-0.708;2023-07-28T08:48:54;100192.47;;;20.20;73.01
55517;BME280;41724;51.176;-0.708;2023-07-28T08:51:22;100194.06;;;20.29;71.09
55517;BME280;41724;51.176;-0.708;2023-07-28T08:53:49;100194.47;;;20.84;71.42
55517;BME280;41724;51.176;-0.708;2023-07-28T08:56:16;100191.67;;;20.53;70.74
55517;BME280;41724;51.176;-0.708;2023-07-28T08:58:43;100186.87;;;21.06;68.44
55517;BME280;41724;51.176;-0.708;2023-07-28T09:01:12;100180.04;;;21.85;66.60
55517;BME280;41724;51.176;-0.708;2023-07-28T09:03:39;100183.59;;;20.42;70.38
55517;BME280;41724;51.176;-0.708;2023-07-28T09:06:06;100187.86;;;20.57;70.86
55517;BME280;41724;51.176;-0.708;2023-07-28T09:08:35;100185.40;;;20.35;70.97
55517;BME280;41724;51.176;-0.708;2023-07-28T09:11:04;100183.42;;;21.24;67.82
55517;BME280;41724;51.176;-0.708;2023-07-28T09:13:36;100184.76;;;22.18;65.22
55517;BME280;41724;51.176;-0.708;2023-07-28T09:16:04;100187.95;;;22.04;65.54
55517;BME280;41724;51.176;-0.708;2023-07-28T09:18:32;100190.30;;;21.35;68.84
55517;BME280;41724;51.176;-0.708;2023-07-28T09:20:58;100190.97;;;20.91;68.27
55517;BME280;41724;51.176;-0.708;2023-07-28T09:23:29;100192.46;;;20.81;70.15
55517;BME280;41724;51.176;-0.708;2023-07-28T09:25:59;100188.09;;;20.11;71.37
55517;BME280;41724;51.176;-0.708;2023-07-28T09:28:37;100193.81;;;20.42;70.72
55517;BME280;41724;51.176;-0.708;2023-07-28T09:31:04;100196.15;;;21.95;67.72
55517;BME280;41724;51.176;-0.708;2023-07-28T09:33:34;100193.40;;;21.21;69.47
55517;BME280;41724;51.176;-0.708;2023-07-28T09:36:08;100193.49;;;21.23;67.06
55517;BME280;41724;51.176;-0.708;2023-07-28T09:38:37;100196.01;;;20.29;70.90
55517;BME280;41724;51.176;-0.708;2023-07-28T09:41:05;100194.22;;;21.30;69.74
55517;BME280;41724;51.176;-0.708;2023-07-28T09:43:33;100196.78;;;21.19;68.77
55517;BME280;41724;51.176;-0.708;2023-07-28T09:46:03;100199.82;;;21.40;68.32
55517;BME280;41724;51.176;-0.708;2023-07-28T09:48:32;100203.83;;;21.12;69.87
55517;BME280;41724;51.176;-0.708;2023-07-28T09:51:06;100208.57;;;20.86;70.32
55517;BME280;41724;51.176;-0.708;2023-07-28T09:53:45;100204.08;;;21.23;70.52
55517;BME280;41724;51.176;-0.708;2023-07-28T09:56:15;100203.66;;;21.91;68.33
55517;BME280;41724;51.176;-0.708;2023-07-28T09:58:49;100208.23;;;21.17;68.03
55517;BME280;41724;51.176;-0.708;2023-07-28T10:01:17;100213.79;;;22.01;65.83
55517;BME280;41724;51.176;-0.708;2023-07-28T10:03:47;100207.85;;;22.56;66.51
55517;BME280;41724;51.176;-0.708;2023-07-28T10:06:14;100205.93;;;22.73;65.00
55517;BME280;41724;51.176;-0.708;2023-07-28T10:08:43;100210.20;;;22.79;63.19
55517;BME280;41724;51.176;-0.708;2023-07-28T10:11:10;100212.80;;;22.85;62.42
55517;BME280;41724;51.176;-0.708;2023-07-28T10:13:40;100212.28;;;23.08;63.10
55517;BME280;41724;51.176;-0.708;2023-07-28T10:16:08;100215.29;;;23.51;62.26
55517;BME280;41724;51.176;-0.708;2023-07-28T10:18:35;100213.90;;;23.25;62.14
55517;BME280;41724;51.176;-0.708;2023-07-28T10:21:05;100211.55;;;22.32;62.98
55517;BME280;41724;51.176;-0.708;2023-07-28T10:23:34;100214.83;;;22.16;67.07
55517;BME280;41724;51.176;-0.708;2023-07-28T10:26:02;100208.34;;;22.06;66.38
55517;BME280;41724;51.176;-0.708;2023-07-28T10:28:30;100208.15;;;20.17;70.58
55517;BME280;41724;51.176;-0.708;2023-07-28T10:30:59;100208.77;;;21.25;70.57
55517;BME280;41724;51.176;-0.708;2023-07-28T10:33:29;100203.92;;;22.09;66.21
55517;BME280;41724;51.176;-0.708;2023-07-28T10:35:58;100206.56;;;23.28;64.81
55517;BME280;41724;51.176;-0.708;2023-07-28T10:38:30;100204.69;;;23.67;61.98
55517;BME280;41724;51.176;-0.708;2023-07-28T10:41:15;100205.43;;;23.55;62.14
55517;BME280;41724;51.176;-0.708;2023-07-28T10:43:43;100207.60;;;22.92;63.89
55517;BME280;41724;51.176;-0.708;2023-07-28T10:46:14;100202.82;;;23.84;62.66
55517;BME280;41724;51.176;-0.708;2023-07-28T10:48:42;100202.17;;;23.81;60.92
55517;BME280;41724;51.176;-0.708;2023-07-28T10:51:10;100208.40;;;22.55;62.88
55517;BME280;41724;51.176;-0.708;2023-07-28T10:53:37;100213.39;;;22.29;64.37
55517;BME280;41724;51.176;-0.708;2023-07-28T10:56:05;100216.09;;;21.47;66.13
55517;BME280;41724;51.176;-0.708;2023-07-28T10:58:33;100208.91;;;22.15;66.32
55517;BME280;41724;51.176;-0.708;2023-07-28T11:01:01;100211.17;;;22.12;67.61
55517;BME280;41724;51.176;-0.708;2023-07-28T11:03:29;100213.18;;;20.78;71.84
55517;BME280;41724;51.176;-0.708;2023-07-28T11:05:55;100213.25;;;21.70;69.64
55517;BME280;41724;51.176;-0.708;2023-07-28T11:08:23;100216.69;;;21.22;70.26
55517;BME280;41724;51.176;-0.708;2023-07-28T11:10:50;100208.80;;;22.22;67.62
55517;BME280;41724;51.176;-0.708;2023-07-28T11:13:17;100205.60;;;22.19;67.78
55517;BME280;41724;51.176;-0.708;2023-07-28T11:15:44;100202.56;;;23.75;64.29
55517;BME280;41724;51.176;-0.708;2023-07-28T11:18:15;100205.89;;;23.58;63.93
55517;BME280;41724;51.176;-0.708;2023-07-28T11:20:42;100208.20;;;23.91;62.46
55517;BME280;41724;51.176;-0.708;2023-07-28T11:23:09;100210.23;;;23.41;61.32
55517;BME280;41724;51.176;-0.708;2023-07-28T11:25:37;100212.21;;;22.17;66.63
55517;BME280;41724;51.176;-0.708;2023-07-28T11:28:04;100215.21;;;21.64;67.58
55517;BME280;41724;51.176;-0.708;2023-07-28T11:30:32;100226.02;;;21.73;68.82
55517;BME280;41724;51.176;-0.708;2023-07-28T11:33:04;100226.36;;;20.31;76.06
55517;BME280;41724;51.176;-0.708;2023-07-28T11:35:31;100234.19;;;19.87;79.40
55517;BME280;41724;51.176;-0.708;2023-07-28T11:37:58;100234.44;;;19.74;81.71
55517;BME280;41724;51.176;-0.708;2023-07-28T11:40:24;100235.45;;;20.60;78.72
55517;BME280;41724;51.176;-0.708;2023-07-28T11:42:54;100237.71;;;21.10;78.13
55517;BME280;41724;51.176;-0.708;2023-07-28T11:45:22;100230.83;;;21.36;76.75
55517;BME280;41724;51.176;-0.708;2023-07-28T11:47:59;100237.36;;;20.78;79.00
55517;BME280;41724;51.176;-0.708;2023-07-28T11:50:28;100234.89;;;21.59;78.39
55517;BME280;41724;51.176;-0.708;2023-07-28T11:52:57;100230.07;;;22.81;75.34
55517;BME280;41724;51.176;-0.708;2023-07-28T11:55:24;100237.04;;;22.99;73.35
55517;BME280;41724;51.176;-0.708;2023-07-28T11:57:52;100244.32;;;22.00;75.44
55517;BME280;41724;51.176;-0.708;2023-07-28T12:00:19;100245.35;;;22.00;78.49
55517;BME280;41724;51.176;-0.708;2023-07-28T12:03:01;100244.60;;;21.59;79.26
55517;BME280;41724;51.176;-0.708;2023-07-28T12:05:28;100232.54;;;21.53;80.11
55517;BME280;41724;51.176;-0.708;2023-07-28T12:07:55;100234.37;;;22.31;82.75
55517;BME280;41724;51.176;-0.708;2023-07-28T12:10:22;100227.69;;;23.14;77.50
55517;BME280;41724;51.176;-0.708;2023-07-28T12:12:48;100229.10;;;23.39;74.56
55517;BME280;41724;51.176;-0.708;2023-07-28T12:15:20;100225.43;;;24.40;74.74
55517;BME280;41724;51.176;-0.708;2023-07-28T12:18:06;100223.24;;;24.78;72.24
55517;BME280;41724;51.176;-0.708;2023-07-28T12:20:35;100220.10;;;24.25;70.01
55517;BME280;41724;51.176;-0.708;2023-07-28T12:23:03;100219.29;;;24.17;71.40
55517;BME280;41724;51.176;-0.708;2023-07-28T12:25:30;100217.20;;;23.89;68.39
55517;BME280;41724;51.176;-0.708;2023-07-28T12:27:57;100208.19;;;25.29;67.07
55517;BME280;41724;51.176;-0.708;2023-07-28T12:30:24;100208.03;;;25.49;62.72
55517;BME280;41724;51.176;-0.708;2023-07-28T12:32:52;100207.00;;;25.34;63.39
55517;BME280;41724;51.176;-0.708;2023-07-28T12:35:19;100203.05;;;25.45;63.95
55517;BME280;41724;51.176;-0.708;2023-07-28T12:37:45;100194.13;;;26.15;59.93
55517;BME280;41724;51.176;-0.708;2023-07-28T12:40:12;100193.57;;;25.16;59.41
55517;BME280;41724;51.176;-0.708;2023-07-28T12:42:39;100187.76;;;25.16;62.51